sensor_id;sensor_type;location;lat;lon;timestamp;temperature;humidity
1415;DHT22;702;49.466;11.086;2023-06-10T00:01:44;15.80;79.60
1415;DHT22;702;49.466;11.086;2023-06-10T00:04:13;15.70;79.70
1415;DHT22;702;49.466;11.086;2023-06-10T00:06:40;15.70;80.20
1415;DHT22;702;49.466;11.086;2023-06-10T00:09:09;15.60;80.70
1415;DHT22;702;49.466;11.086;2023-06-10T00:11:37;15.60;80.60
1415;DHT22;702;49.466;11.086;2023-06-10T00:14:06;15.60;80.80
1415;DHT22;702;49.466;11.086;2023-06-10T00:16:34;15.40;80.80
1415;DHT22;702;49.466;11.086;2023-06-10T00:19:02;15.40;81.40
1415;DHT22;702;49.466;11.086;2023-06-10T00:21:31;15.30;81.50
1415;DHT22;702;49.466;11.086;2023-06-10T00:24:03;15.10;81.70
1415;DHT22;702;49.466;11.086;2023-06-10T00:26:32;15.00;81.50
1415;DHT22;702;49.466;11.086;2023-06-10T00:29:00;15.00;82.00
1415;DHT22;702;49.466;11.086;2023-06-10T00:31:28;14.90;82.10
1415;DHT22;702;49.466;11.086;2023-06-10T00:33:56;14.80;82.30
1415;DHT22;702;49.466;11.086;2023-06-10T00:36:24;14.80;82.70
1415;DHT22;702;49.466;11.086;2023-06-10T00:38:52;14.80;82.80
1415;DHT22;702;49.466;11.086;2023-06-10T00:41:19;14.80;83.10
1415;DHT22;702;49.466;11.086;2023-06-10T00:43:47;14.80;83.40
1415;DHT22;702;49.466;11.086;2023-06-10T00:46:14;14.80;83.50
1415;DHT22;702;49.466;11.086;2023-06-10T00:48:43;14.90;83.50
1415;DHT22;702;49.466;11.086;2023-06-10T00:51:13;14.90;83.60
1415;DHT22;702;49.466;11.086;2023-06-10T00:53:41;14.90;83.80
1415;DHT22;702;49.466;11.086;2023-06-10T00:56:09;14.90;84.00
1415;DHT22;702;49.466;11.086;2023-06-10T00:58:36;14.90;83.90
1415;DHT22;702;49.466;11.086;2023-06-10T01:01:03;15.00;83.70
1415;DHT22;702;49.466;11.086;2023-06-10T01:03:31;14.90;83.90
1415;DHT22;702;49.466;11.086;2023-06-10T01:06:08;14.80;84.20
1415;DHT22;702;49.466;11.086;2023-06-10T01:08:50;14.70;84.80
1415;DHT22;702;49.466;11.086;2023-06-10T01:11:34;14.80;85.10
1415;DHT22;702;49.466;11.086;2023-06-10T01:14:04;14.70;85.10
1415;DHT22;702;49.466;11.086;2023-06-10T01:16:33;14.70;85.10
1415;DHT22;702;49.466;11.086;2023-06-10T01:19:02;14.50;85.50
1415;DHT22;702;49.466;11.086;2023-06-10T01:21:30;14.50;86.10
1415;DHT22;702;49.466;11.086;2023-06-10T01:23:58;14.40;86.80
1415;DHT22;702;49.466;11.086;2023-06-10T01:26:28;14.40;87.10
1415;DHT22;702;49.466;11.086;2023-06-10T01:29:02;14.40;87.80
1415;DHT22;702;49.466;11.086;2023-06-10T01:31:38;14.30;88.40
1415;DHT22;702;49.466;11.086;2023-06-10T01:34:11;14.20;89.20
1415;DHT22;702;49.466;11.086;2023-06-10T01:36:44;14.10;90.00
1415;DHT22;702;49.466;11.086;2023-06-10T01:39:14;14.20;90.20
1415;DHT22;702;49.466;11.086;2023-06-10T01:41:44;14.20;90.90
1415;DHT22;702;49.466;11.086;2023-06-10T01:44:11;14.10;90.50
1415;DHT22;702;49.466;11.086;2023-06-10T01:46:38;14.10;91.00
1415;DHT22;702;49.466;11.086;2023-06-10T01:49:05;14.00;91.00
1415;DHT22;702;49.466;11.086;2023-06-10T01:51:33;13.90;91.20
1415;DHT22;702;49.466;11.086;2023-06-10T01:54:02;13.90;91.40
1415;DHT22;702;49.466;11.086;2023-06-10T01:56:30;13.80;91.80
1415;DHT22;702;49.466;11.086;2023-06-10T01:58:57;13.80;92.20
1415;DHT22;702;49.466;11.086;2023-06-10T02:01:25;13.80;92.20
1415;DHT22;702;49.466;11.086;2023-06-10T02:03:52;13.80;92.40
1415;DHT22;702;49.466;11.086;2023-06-10T02:06:19;13.80;92.80
1415;DHT22;702;49.466;11.086;2023-06-10T02:08:47;13.70;93.10
1415;DHT22;702;49.466;11.086;2023-06-10T02:11:15;13.70;93.40
1415;DHT22;702;49.466;11.086;2023-06-10T02:13:43;13.60;93.50
1415;DHT22;702;49.466;11.086;2023-06-10T02:16:10;13.70;93.80
1415;DHT22;702;49.466;11.086;2023-06-10T02:18:38;13.70;93.50
1415;DHT22;702;49.466;11.086;2023-06-10T02:21:08;13.60;93.70
1415;DHT22;702;49.466;11.086;2023-06-10T02:23:36;13.70;93.80
1415;DHT22;702;49.466;11.086;2023-06-10T02:26:03;13.70;93.60
1415;DHT22;702;49.466;11.086;2023-06-10T02:28:32;13.70;93.20
1415;DHT22;702;49.466;11.086;2023-06-10T02:30:59;13.70;93.60
1415;DHT22;702;49.466;11.086;2023-06-10T02:33:26;13.70;93.80
1415;DHT22;702;49.466;11.086;2023-06-10T02:35:54;13.60;94.10
1415;DHT22;702;49.466;11.086;2023-06-10T02:38:22;13.60;94.30
1415;DHT22;702;49.466;11.086;2023-06-10T02:40:49;13.60;94.50
1415;DHT22;702;49.466;11.086;2023-06-10T02:43:16;13.50;94.70
1415;DHT22;702;49.466;11.086;2023-06-10T02:45:45;13.50;94.80
1415;DHT22;702;49.466;11.086;2023-06-10T02:48:12;13.50;95.10
1415;DHT22;702;49.466;11.086;2023-06-10T02:50:39;13.50;95.60
1415;DHT22;702;49.466;11.086;2023-06-10T02:53:06;13.60;95.20
1415;DHT22;702;49.466;11.086;2023-06-10T02:55:33;13.70;94.10
1415;DHT22;702;49.466;11.086;2023-06-10T02:58:01;13.80;94.20
1415;DHT22;702;49.466;11.086;2023-06-10T03:00:29;13.80;94.00
1415;DHT22;702;49.466;11.086;2023-06-10T03:02:57;13.70;94.50
1415;DHT22;702;49.466;11.086;2023-06-10T03:05:29;13.70;94.20
1415;DHT22;702;49.466;11.086;2023-06-10T03:07:56;13.70;95.20
1415;DHT22;702;49.466;11.086;2023-06-10T03:10:25;13.70;95.00
1415;DHT22;702;49.466;11.086;2023-06-10T03:12:52;13.60;95.80
1415;DHT22;702;49.466;11.086;2023-06-10T03:15:20;13.70;95.70
1415;DHT22;702;49.466;11.086;2023-06-10T03:17:47;13.70;95.30
1415;DHT22;702;49.466;11.086;2023-06-10T03:20:16;13.70;94.80
1415;DHT22;702;49.466;11.086;2023-06-10T03:22:43;13.60;95.30
1415;DHT22;702;49.466;11.086;2023-06-10T03:25:11;13.50;96.10
1415;DHT22;702;49.466;11.086;2023-06-10T03:27:39;13.40;96.40
1415;DHT22;702;49.466;11.086;2023-06-10T03:30:07;13.40;97.00
1415;DHT22;702;49.466;11.086;2023-06-10T03:32:35;13.60;95.90
1415;DHT22;702;49.466;11.086;2023-06-10T03:35:03;13.80;94.20
1415;DHT22;702;49.466;11.086;2023-06-10T03:37:34;13.80;94.30
1415;DHT22;702;49.466;11.086;2023-06-10T03:40:01;13.80;94.30
1415;DHT22;702;49.466;11.086;2023-06-10T03:42:30;13.80;94.00
1415;DHT22;702;49.466;11.086;2023-06-10T03:44:57;13.80;94.20
1415;DHT22;702;49.466;11.086;2023-06-10T03:47:25;13.90;94.10
1415;DHT22;702;49.466;11.086;2023-06-10T03:49:52;14.00;94.00
1415;DHT22;702;49.466;11.086;2023-06-10T03:52:19;14.10;93.90
1415;DHT22;702;49.466;11.086;2023-06-10T03:54:48;14.10;93.80
1415;DHT22;702;49.466;11.086;2023-06-10T03:57:15;14.20;94.00
1415;DHT22;702;49.466;11.086;2023-06-10T03:59:42;14.30;93.60
1415;DHT22;702;49.466;11.086;2023-06-10T04:02:09;14.40;93.20
1415;DHT22;702;49.466;11.086;2023-06-10T04:04:37;14.70;92.30
1415;DHT22;702;49.466;11.086;2023-06-10T04:07:04;15.00;91.30
1415;DHT22;702;49.466;11.086;2023-06-10T04:09:32;15.80;89.10
1415;DHT22;702;49.466;11.086;2023-06-10T04:12:00;16.40;86.30
1415;DHT22;702;49.466;11.086;2023-06-10T04:14:31;17.00;84.70
1415;DHT22;702;49.466;11.086;2023-06-10T04:16:58;17.40;83.50
1415;DHT22;702;49.466;11.086;2023-06-10T04:19:26;17.80;82.40
1415;DHT22;702;49.466;11.086;2023-06-10T04:21:54;18.20;81.10
1415;DHT22;702;49.466;11.086;2023-06-10T04:24:21;18.80;80.00
1415;DHT22;702;49.466;11.086;2023-06-10T04:26:48;19.80;78.00
1415;DHT22;702;49.466;11.086;2023-06-10T04:29:17;20.30;76.20
1415;DHT22;702;49.466;11.086;2023-06-10T04:31:44;20.60;74.40
1415;DHT22;702;49.466;11.086;2023-06-10T04:34:12;21.20;72.40
1415;DHT22;702;49.466;11.086;2023-06-10T04:36:40;21.60;70.70
1415;DHT22;702;49.466;11.086;2023-06-10T04:39:08;21.90;69.10
1415;DHT22;702;49.466;11.086;2023-06-10T04:41:35;22.30;67.70
1415;DHT22;702;49.466;11.086;2023-06-10T04:44:02;22.40;66.90
1415;DHT22;702;49.466;11.086;2023-06-10T04:46:31;23.10;65.50
1415;DHT22;702;49.466;11.086;2023-06-10T04:48:58;23.00;64.80
1415;DHT22;702;49.466;11.086;2023-06-10T04:51:26;22.60;64.70
1415;DHT22;702;49.466;11.086;2023-06-10T04:53:54;22.90;64.40
1415;DHT22;702;49.466;11.086;2023-06-10T04:56:22;22.90;64.10
1415;DHT22;702;49.466;11.086;2023-06-10T04:58:49;23.10;63.50
1415;DHT22;702;49.466;11.086;2023-06-10T05:01:17;23.00;63.10
1415;DHT22;702;49.466;11.086;2023-06-10T05:03:45;23.00;63.40
1415;DHT22;702;49.466;11.086;2023-06-10T05:06:12;23.30;62.70
1415;DHT22;702;49.466;11.086;2023-06-10T05:08:40;23.60;62.40
1415;DHT22;702;49.466;11.086;2023-06-10T05:11:07;23.90;61.60
1415;DHT22;702;49.466;11.086;2023-06-10T05:13:34;24.10;61.10
1415;DHT22;702;49.466;11.086;2023-06-10T05:16:02;24.00;60.60
1415;DHT22;702;49.466;11.086;2023-06-10T05:18:30;23.60;60.60
1415;DHT22;702;49.466;11.086;2023-06-10T05:20:58;23.80;60.90
1415;DHT22;702;49.466;11.086;2023-06-10T05:23:26;23.80;60.50
1415;DHT22;702;49.466;11.086;2023-06-10T05:25:53;24.20;60.00
1415;DHT22;702;49.466;11.086;2023-06-10T05:28:20;24.40;59.70
1415;DHT22;702;49.466;11.086;2023-06-10T05:30:48;24.30;59.70
1415;DHT22;702;49.466;11.086;2023-06-10T05:33:15;24.50;59.90
1415;DHT22;702;49.466;11.086;2023-06-10T05:35:42;24.20;59.80
1415;DHT22;702;49.466;11.086;2023-06-10T05:38:11;24.60;59.20
1415;DHT22;702;49.466;11.086;2023-06-10T05:40:38;25.00;59.00
1415;DHT22;702;49.466;11.086;2023-06-10T05:43:06;25.50;58.30
1415;DHT22;702;49.466;11.086;2023-06-10T05:45:33;25.60;57.80
1415;DHT22;702;49.466;11.086;2023-06-10T05:48:00;25.00;58.00
1415;DHT22;702;49.466;11.086;2023-06-10T05:50:28;24.40;58.80
1415;DHT22;702;49.466;11.086;2023-06-10T05:52:55;24.10;59.50
1415;DHT22;702;49.466;11.086;2023-06-10T05:55:24;24.50;59.60
1415;DHT22;702;49.466;11.086;2023-06-10T05:57:58;25.20;59.00
1415;DHT22;702;49.466;11.086;2023-06-10T06:00:26;25.80;58.00
1415;DHT22;702;49.466;11.086;2023-06-10T06:02:53;26.10;57.50
1415;DHT22;702;49.466;11.086;2023-06-10T06:05:21;26.50;56.80
1415;DHT22;702;49.466;11.086;2023-06-10T06:07:48;26.80;56.40
1415;DHT22;702;49.466;11.086;2023-06-10T06:10:17;26.50;57.20
1415;DHT22;702;49.466;11.086;2023-06-10T06:12:46;26.90;56.50
1415;DHT22;702;49.466;11.086;2023-06-10T06:15:13;27.40;55.60
1415;DHT22;702;49.466;11.086;2023-06-10T06:17:41;27.20;55.40
1415;DHT22;702;49.466;11.086;2023-06-10T06:20:08;27.20;55.60
1415;DHT22;702;49.466;11.086;2023-06-10T06:22:35;27.30;55.60
1415;DHT22;702;49.466;11.086;2023-06-10T06:25:04;27.80;54.70
1415;DHT22;702;49.466;11.086;2023-06-10T06:27:31;27.70;55.00
1415;DHT22;702;49.466;11.086;2023-06-10T06:30:00;27.10;54.80
1415;DHT22;702;49.466;11.086;2023-06-10T06:32:27;26.10;55.80
1415;DHT22;702;49.466;11.086;2023-06-10T06:34:56;24.60;57.50
1415;DHT22;702;49.466;11.086;2023-06-10T06:37:25;23.50;59.50
1415;DHT22;702;49.466;11.086;2023-06-10T06:39:53;22.30;61.60
1415;DHT22;702;49.466;11.086;2023-06-10T06:42:20;21.60;64.50
1415;DHT22;702;49.466;11.086;2023-06-10T06:44:48;21.20;66.80
1415;DHT22;702;49.466;11.086;2023-06-10T06:47:16;21.20;67.70
1415;DHT22;702;49.466;11.086;2023-06-10T06:49:45;21.20;68.10
1415;DHT22;702;49.466;11.086;2023-06-10T06:52:12;21.30;68.30
1415;DHT22;702;49.466;11.086;2023-06-10T06:54:40;21.50;69.20
1415;DHT22;702;49.466;11.086;2023-06-10T06:57:07;21.50;69.30
1415;DHT22;702;49.466;11.086;2023-06-10T06:59:35;21.60;65.60
1415;DHT22;702;49.466;11.086;2023-06-10T07:02:02;21.60;65.60
1415;DHT22;702;49.466;11.086;2023-06-10T07:04:31;21.60;64.80
1415;DHT22;702;49.466;11.086;2023-06-10T07:06:59;21.60;64.40
1415;DHT22;702;49.466;11.086;2023-06-10T07:09:26;21.60;64.60
1415;DHT22;702;49.466;11.086;2023-06-10T07:11:53;21.60;64.50
1415;DHT22;702;49.466;11.086;2023-06-10T07:14:21;21.60;64.70
1415;DHT22;702;49.466;11.086;2023-06-10T07:16:48;21.70;64.50
1415;DHT22;702;49.466;11.086;2023-06-10T07:19:16;21.90;64.70
1415;DHT22;702;49.466;11.086;2023-06-10T07:21:44;22.00;64.60
1415;DHT22;702;49.466;11.086;2023-06-10T07:24:12;22.20;64.50
1415;DHT22;702;49.466;11.086;2023-06-10T07:26:39;22.30;64.30
1415;DHT22;702;49.466;11.086;2023-06-10T07:29:06;22.30;64.00
1415;DHT22;702;49.466;11.086;2023-06-10T07:31:34;22.30;63.30
1415;DHT22;702;49.466;11.086;2023-06-10T07:34:01;22.30;63.60
1415;DHT22;702;49.466;11.086;2023-06-10T07:36:28;22.30;63.50
1415;DHT22;702;49.466;11.086;2023-06-10T07:38:57;22.50;63.30
1415;DHT22;702;49.466;11.086;2023-06-10T07:41:24;22.50;62.20
1415;DHT22;702;49.466;11.086;2023-06-10T07:43:54;22.40;62.20
1415;DHT22;702;49.466;11.086;2023-06-10T07:46:24;22.40;62.40
1415;DHT22;702;49.466;11.086;2023-06-10T07:48:53;22.30;62.10
1415;DHT22;702;49.466;11.086;2023-06-10T07:51:21;22.40;62.80
1415;DHT22;702;49.466;11.086;2023-06-10T07:53:49;22.60;62.10
1415;DHT22;702;49.466;11.086;2023-06-10T07:56:17;22.70;61.70
1415;DHT22;702;49.466;11.086;2023-06-10T07:58:46;22.80;61.70
1415;DHT22;702;49.466;11.086;2023-06-10T08:01:13;22.80;61.10
1415;DHT22;702;49.466;11.086;2023-06-10T08:03:41;22.80;61.00
1415;DHT22;702;49.466;11.086;2023-06-10T08:06:08;23.00;61.10
1415;DHT22;702;49.466;11.086;2023-06-10T08:08:37;23.10;60.60
1415;DHT22;702;49.466;11.086;2023-06-10T08:11:07;23.10;60.80
1415;DHT22;702;49.466;11.086;2023-06-10T08:13:36;23.30;60.20
1415;DHT22;702;49.466;11.086;2023-06-10T08:16:04;23.40;60.30
1415;DHT22;702;49.466;11.086;2023-06-10T08:18:31;23.70;60.80
1415;DHT22;702;49.466;11.086;2023-06-10T08:20:59;23.70;59.60
1415;DHT22;702;49.466;11.086;2023-06-10T08:23:26;23.50;59.30
1415;DHT22;702;49.466;11.086;2023-06-10T08:25:53;23.40;59.70
1415;DHT22;702;49.466;11.086;2023-06-10T08:28:20;23.40;59.40
1415;DHT22;702;49.466;11.086;2023-06-10T08:30:49;23.40;59.70
1415;DHT22;702;49.466;11.086;2023-06-10T08:33:16;23.40;59.50
1415;DHT22;702;49.466;11.086;2023-06-10T08:35:44;23.70;59.90
1415;DHT22;702;49.466;11.086;2023-06-10T08:38:11;23.90;60.00
1415;DHT22;702;49.466;11.086;2023-06-10T08:40:38;24.20;59.80
1415;DHT22;702;49.466;11.086;2023-06-10T08:43:07;24.30;58.90
1415;DHT22;702;49.466;11.086;2023-06-10T08:45:36;24.10;58.40
1415;DHT22;702;49.466;11.086;2023-06-10T08:48:05;24.00;57.90
1415;DHT22;702;49.466;11.086;2023-06-10T08:50:35;24.00;58.30
1415;DHT22;702;49.466;11.086;2023-06-10T08:53:05;24.00;58.00
1415;DHT22;702;49.466;11.086;2023-06-10T08:55:35;24.00;58.00
1415;DHT22;702;49.466;11.086;2023-06-10T08:58:04;24.20;58.10
1415;DHT22;702;49.466;11.086;2023-06-10T09:00:31;24.40;57.60
1415;DHT22;702;49.466;11.086;2023-06-10T09:02:59;24.50;57.50
1415;DHT22;702;49.466;11.086;2023-06-10T09:05:30;24.60;56.80
1415;DHT22;702;49.466;11.086;2023-06-10T09:08:00;24.60;57.30
1415;DHT22;702;49.466;11.086;2023-06-10T09:10:29;24.60;56.80
1415;DHT22;702;49.466;11.086;2023-06-10T09:12:57;24.80;57.00
1415;DHT22;702;49.466;11.086;2023-06-10T09:15:24;25.00;56.20
1415;DHT22;702;49.466;11.086;2023-06-10T09:17:52;25.10;56.00
1415;DHT22;702;49.466;11.086;2023-06-10T09:20:19;25.30;56.00
1415;DHT22;702;49.466;11.086;2023-06-10T09:22:48;25.50;55.30
1415;DHT22;702;49.466;11.086;2023-06-10T09:25:16;25.60;55.40
1415;DHT22;702;49.466;11.086;2023-06-10T09:27:47;25.60;55.60
1415;DHT22;702;49.466;11.086;2023-06-10T09:30:26;25.20;55.70
1415;DHT22;702;49.466;11.086;2023-06-10T09:32:54;25.40;55.90
1415;DHT22;702;49.466;11.086;2023-06-10T09:35:23;25.70;55.30
1415;DHT22;702;49.466;11.086;2023-06-10T09:37:52;25.50;54.50
1415;DHT22;702;49.466;11.086;2023-06-10T09:40:20;25.40;54.30
1415;DHT22;702;49.466;11.086;2023-06-10T09:42:53;25.50;55.30
1415;DHT22;702;49.466;11.086;2023-06-10T09:45:22;25.90;54.90
1415;DHT22;702;49.466;11.086;2023-06-10T09:47:52;26.20;54.10
1415;DHT22;702;49.466;11.086;2023-06-10T09:50:20;26.10;54.20
1415;DHT22;702;49.466;11.086;2023-06-10T09:52:51;26.30;54.30
1415;DHT22;702;49.466;11.086;2023-06-10T09:55:19;26.60;54.30
1415;DHT22;702;49.466;11.086;2023-06-10T09:57:49;26.90;54.00
1415;DHT22;702;49.466;11.086;2023-06-10T10:00:17;27.10;53.50
1415;DHT22;702;49.466;11.086;2023-06-10T10:02:46;27.00;53.60
1415;DHT22;702;49.466;11.086;2023-06-10T10:05:15;27.20;53.70
1415;DHT22;702;49.466;11.086;2023-06-10T10:07:44;27.00;53.10
1415;DHT22;702;49.466;11.086;2023-06-10T10:10:14;27.00;53.30
1415;DHT22;702;49.466;11.086;2023-06-10T10:12:46;26.80;53.20
1415;DHT22;702;49.466;11.086;2023-06-10T10:15:16;26.80;52.70
1415;DHT22;702;49.466;11.086;2023-06-10T10:17:48;26.70;53.10
1415;DHT22;702;49.466;11.086;2023-06-10T10:20:20;26.80;53.20
1415;DHT22;702;49.466;11.086;2023-06-10T10:22:52;26.70;53.10
1415;DHT22;702;49.466;11.086;2023-06-10T10:25:28;26.30;52.50
1415;DHT22;702;49.466;11.086;2023-06-10T10:27:59;26.00;53.20
1415;DHT22;702;49.466;11.086;2023-06-10T10:30:30;26.10;52.40
1415;DHT22;702;49.466;11.086;2023-06-10T10:33:05;26.30;52.40
1415;DHT22;702;49.466;11.086;2023-06-10T10:35:36;26.40;52.50
1415;DHT22;702;49.466;11.086;2023-06-10T10:38:05;26.50;52.50
1415;DHT22;702;49.466;11.086;2023-06-10T10:40:35;26.80;52.30
1415;DHT22;702;49.466;11.086;2023-06-10T10:43:03;27.20;51.90
1415;DHT22;702;49.466;11.086;2023-06-10T10:45:30;27.50;51.70
1415;DHT22;702;49.466;11.086;2023-06-10T10:48:05;27.40;51.40
1415;DHT22;702;49.466;11.086;2023-06-10T10:50:35;27.40;51.70
1415;DHT22;702;49.466;11.086;2023-06-10T10:53:04;27.50;52.00
1415;DHT22;702;49.466;11.086;2023-06-10T10:55:34;28.20;52.00
1415;DHT22;702;49.466;11.086;2023-06-10T10:58:04;28.30;50.80
1415;DHT22;702;49.466;11.086;2023-06-10T11:00:33;28.10;51.50
1415;DHT22;702;49.466;11.086;2023-06-10T11:03:06;27.50;51.20
1415;DHT22;702;49.466;11.086;2023-06-10T11:05:39;26.90;51.50
1415;DHT22;702;49.466;11.086;2023-06-10T11:08:10;26.60;52.20
1415;DHT22;702;49.466;11.086;2023-06-10T11:10:40;26.70;52.70
1415;DHT22;702;49.466;11.086;2023-06-10T11:13:09;27.10;52.90
1415;DHT22;702;49.466;11.086;2023-06-10T11:15:39;27.50;52.40
1415;DHT22;702;49.466;11.086;2023-06-10T11:18:21;28.10;52.20
1415;DHT22;702;49.466;11.086;2023-06-10T11:20:58;28.40;51.40
1415;DHT22;702;49.466;11.086;2023-06-10T11:23:41;28.40;50.90
1415;DHT22;702;49.466;11.086;2023-06-10T11:26:11;27.50;51.70
1415;DHT22;702;49.466;11.086;2023-06-10T11:29:06;26.80;52.40
1415;DHT22;702;49.466;11.086;2023-06-10T11:31:42;27.10;52.30
1415;DHT22;702;49.466;11.086;2023-06-10T11:34:21;27.20;52.20
1415;DHT22;702;49.466;11.086;2023-06-10T11:36:51;27.40;51.80
1415;DHT22;702;49.466;11.086;2023-06-10T11:39:20;27.80;51.70
1415;DHT22;702;49.466;11.086;2023-06-10T11:41:53;28.00;51.30
1415;DHT22;702;49.466;11.086;2023-06-10T11:44:21;28.10;50.10
1415;DHT22;702;49.466;11.086;2023-06-10T11:46:49;28.10;50.60
1415;DHT22;702;49.466;11.086;2023-06-10T11:49:17;28.10;50.30
1415;DHT22;702;49.466;11.086;2023-06-10T11:51:44;28.20;50.40
1415;DHT22;702;49.466;11.086;2023-06-10T11:54:17;28.70;50.20
1415;DHT22;702;49.466;11.086;2023-06-10T11:56:45;28.80;49.50
1415;DHT22;702;49.466;11.086;2023-06-10T11:59:14;28.60;49.50
1415;DHT22;702;49.466;11.086;2023-06-10T12:01:43;28.50;49.50
1415;DHT22;702;49.466;11.086;2023-06-10T12:04:13;28.40;49.70
1415;DHT22;702;49.466;11.086;2023-06-10T12:06:42;28.20;49.80
1415;DHT22;702;49.466;11.086;2023-06-10T12:09:18;27.90;49.60
1415;DHT22;702;49.466;11.086;2023-06-10T12:11:49;27.60;49.30
1415;DHT22;702;49.466;11.086;2023-06-10T12:14:52;27.50;49.90
1415;DHT22;702;49.466;11.086;2023-06-10T12:17:21;27.60;49.40
1415;DHT22;702;49.466;11.086;2023-06-10T12:19:50;27.50;49.60
1415;DHT22;702;49.466;11.086;2023-06-10T12:22:17;27.70;50.60
1415;DHT22;702;49.466;11.086;2023-06-10T12:24:56;27.80;49.90
1415;DHT22;702;49.466;11.086;2023-06-10T12:27:26;28.20;49.70
1415;DHT22;702;49.466;11.086;2023-06-10T12:29:57;28.30;49.60
1415;DHT22;702;49.466;11.086;2023-06-10T12:32:35;28.50;49.80
1415;DHT22;702;49.466;11.086;2023-06-10T12:35:04;28.60;49.50
1415;DHT22;702;49.466;11.086;2023-06-10T12:37:32;28.20;49.30
1415;DHT22;702;49.466;11.086;2023-06-10T12:40:01;28.30;49.70
1415;DHT22;702;49.466;11.086;2023-06-10T12:42:29;28.60;49.50
1415;DHT22;702;49.466;11.086;2023-06-10T12:45:00;29.10;49.20
1415;DHT22;702;49.466;11.086;2023-06-10T12:47:32;29.40;48.60
1415;DHT22;702;49.466;11.086;2023-06-10T12:50:00;29.00;49.10
1415;DHT22;702;49.466;11.086;2023-06-10T12:52:29;28.50;49.60
1415;DHT22;702;49.466;11.086;2023-06-10T12:54:56;28.10;49.30
1415;DHT22;702;49.466;11.086;2023-06-10T12:57:24;27.80;49.90
1415;DHT22;702;49.466;11.086;2023-06-10T12:59:52;27.70;50.60
1415;DHT22;702;49.466;11.086;2023-06-10T13:02:24;27.60;50.10
1415;DHT22;702;49.466;11.086;2023-06-10T13:04:51;27.40;49.80
1415;DHT22;702;49.466;11.086;2023-06-10T13:07:19;27.10;50.20
1415;DHT22;702;49.466;11.086;2023-06-10T13:09:48;26.90;50.20
1415;DHT22;702;49.466;11.086;2023-06-10T13:12:15;27.00;50.40
1415;DHT22;702;49.466;11.086;2023-06-10T13:14:43;27.00;50.20
1415;DHT22;702;49.466;11.086;2023-06-10T13:17:10;26.90;50.10
1415;DHT22;702;49.466;11.086;2023-06-10T13:19:39;26.90;50.30
1415;DHT22;702;49.466;11.086;2023-06-10T13:22:06;27.20;49.80
1415;DHT22;702;49.466;11.086;2023-06-10T13:24:34;27.50;49.70
1415;DHT22;702;49.466;11.086;2023-06-10T13:27:01;28.20;49.40
1415;DHT22;702;49.466;11.086;2023-06-10T13:29:28;29.00;49.20
1415;DHT22;702;49.466;11.086;2023-06-10T13:31:57;29.30;48.10
1415;DHT22;702;49.466;11.086;2023-06-10T13:34:24;30.10;47.60
1415;DHT22;702;49.466;11.086;2023-06-10T13:36:53;30.10;47.50
1415;DHT22;702;49.466;11.086;2023-06-10T13:39:20;30.10;46.90
1415;DHT22;702;49.466;11.086;2023-06-10T13:41:47;29.70;47.10
1415;DHT22;702;49.466;11.086;2023-06-10T13:44:14;29.20;47.80
1415;DHT22;702;49.466;11.086;2023-06-10T13:46:41;28.70;47.80
1415;DHT22;702;49.466;11.086;2023-06-10T13:49:09;28.30;48.20
1415;DHT22;702;49.466;11.086;2023-06-10T13:51:37;28.00;48.80
1415;DHT22;702;49.466;11.086;2023-06-10T13:54:06;27.90;49.20
1415;DHT22;702;49.466;11.086;2023-06-10T13:56:33;27.80;48.50
1415;DHT22;702;49.466;11.086;2023-06-10T13:59:03;27.80;48.90
1415;DHT22;702;49.466;11.086;2023-06-10T14:01:30;27.90;48.80
1415;DHT22;702;49.466;11.086;2023-06-10T14:03:58;27.90;48.70
1415;DHT22;702;49.466;11.086;2023-06-10T14:06:25;27.70;48.90
1415;DHT22;702;49.466;11.086;2023-06-10T14:08:52;27.40;48.70
1415;DHT22;702;49.466;11.086;2023-06-10T14:11:21;27.40;48.90
1415;DHT22;702;49.466;11.086;2023-06-10T14:13:49;27.60;49.10
1415;DHT22;702;49.466;11.086;2023-06-10T14:16:16;27.90;49.10
1415;DHT22;702;49.466;11.086;2023-06-10T14:18:43;28.00;48.80
1415;DHT22;702;49.466;11.086;2023-06-10T14:21:12;28.00;49.00
1415;DHT22;702;49.466;11.086;2023-06-10T14:23:39;28.00;49.30
1415;DHT22;702;49.466;11.086;2023-06-10T14:26:07;27.70;49.40
1415;DHT22;702;49.466;11.086;2023-06-10T14:28:36;27.50;49.80
1415;DHT22;702;49.466;11.086;2023-06-10T14:31:03;27.70;49.90
1415;DHT22;702;49.466;11.086;2023-06-10T14:33:30;28.20;49.60
1415;DHT22;702;49.466;11.086;2023-06-10T14:35:57;28.40;49.40
1415;DHT22;702;49.466;11.086;2023-06-10T14:38:25;28.50;49.40
1415;DHT22;702;49.466;11.086;2023-06-10T14:40:52;28.50;48.70
1415;DHT22;702;49.466;11.086;2023-06-10T14:43:20;28.50;48.50
1415;DHT22;702;49.466;11.086;2023-06-10T14:45:48;28.30;48.10
1415;DHT22;702;49.466;11.086;2023-06-10T14:48:16;28.10;48.50
1415;DHT22;702;49.466;11.086;2023-06-10T14:50:44;28.20;48.80
1415;DHT22;702;49.466;11.086;2023-06-10T14:53:16;28.00;48.90
1415;DHT22;702;49.466;11.086;2023-06-10T14:55:44;27.60;48.60
1415;DHT22;702;49.466;11.086;2023-06-10T14:58:11;27.30;49.30
1415;DHT22;702;49.466;11.086;2023-06-10T15:00:39;27.10;49.50
1415;DHT22;702;49.466;11.086;2023-06-10T15:03:08;27.10;50.00
1415;DHT22;702;49.466;11.086;2023-06-10T15:05:35;27.10;49.60
1415;DHT22;702;49.466;11.086;2023-06-10T15:08:04;26.90;49.70
1415;DHT22;702;49.466;11.086;2023-06-10T15:10:31;27.00;49.70
1415;DHT22;702;49.466;11.086;2023-06-10T15:12:59;27.10;50.10
1415;DHT22;702;49.466;11.086;2023-06-10T15:15:26;27.40;50.60
1415;DHT22;702;49.466;11.086;2023-06-10T15:17:54;27.70;51.30
1415;DHT22;702;49.466;11.086;2023-06-10T15:20:23;27.60;50.30
1415;DHT22;702;49.466;11.086;2023-06-10T15:22:51;27.60;50.80
1415;DHT22;702;49.466;11.086;2023-06-10T15:25:19;27.70;51.10
1415;DHT22;702;49.466;11.086;2023-06-10T15:27:47;27.60;50.80
1415;DHT22;702;49.466;11.086;2023-06-10T15:30:14;27.30;50.80
1415;DHT22;702;49.466;11.086;2023-06-10T15:32:41;27.10;50.90
1415;DHT22;702;49.466;11.086;2023-06-10T15:35:09;27.10;51.30
1415;DHT22;702;49.466;11.086;2023-06-10T15:37:38;27.20;51.20
1415;DHT22;702;49.466;11.086;2023-06-10T15:40:06;27.30;51.60
1415;DHT22;702;49.466;11.086;2023-06-10T15:42:34;27.50;51.00
1415;DHT22;702;49.466;11.086;2023-06-10T15:45:02;27.50;50.30
1415;DHT22;702;49.466;11.086;2023-06-10T15:47:29;27.40;50.40
1415;DHT22;702;49.466;11.086;2023-06-10T15:49:56;27.50;50.80
1415;DHT22;702;49.466;11.086;2023-06-10T15:52:24;27.50;50.50
1415;DHT22;702;49.466;11.086;2023-06-10T15:54:52;27.60;50.70
1415;DHT22;702;49.466;11.086;2023-06-10T15:57:20;28.20;50.20
1415;DHT22;702;49.466;11.086;2023-06-10T15:59:47;28.80;48.90
1415;DHT22;702;49.466;11.086;2023-06-10T16:02:14;29.40;48.40
1415;DHT22;702;49.466;11.086;2023-06-10T16:04:41;29.80;47.60
1415;DHT22;702;49.466;11.086;2023-06-10T16:07:09;29.90;47.40
1415;DHT22;702;49.466;11.086;2023-06-10T16:09:36;29.40;48.10
1415;DHT22;702;49.466;11.086;2023-06-10T16:12:06;28.50;48.70